Lenox, Georgia
Current Conditions -  °F | °C
As of 3:15 PM on Wednesday 26 Nov 2014 (Local Time) from KTMA Reporting Station
Clear Clear  
Wind Chill: 58°   Ceiling: Unl
Heat Index: 58°   Visibility: 10mi
Dew Point: 28°   Wind: 12mph
Humidity: 32%   Direction: 290°WNW
Pressure: 30.12"   Gusts: NA
Location:  31.27°N, 83.46°W
Report Text: KTMA 262015Z AUTO 29010KT 10SM CLR 15/M02 A3012 RMK AO2 T01461022
Loading
Personal Weather Stations






























Interactive Weather Map New forecast layout! Learn more

10-Day Weather Forecast

Advertisements
Track Severe Weather on mobile